sensor_id;sensor_type;location;lat;lon;timestamp;P1;durP1;ratioP1;P2;durP2;ratioP2
12052;SDS011;6087;48.982;12.064;2022-10-22T00:00:40;17.92;;;13.45;;
12052;SDS011;6087;48.982;12.064;2022-10-22T00:03:07;16.65;;;13.27;;
12052;SDS011;6087;48.982;12.064;2022-10-22T00:05:35;17.45;;;12.27;;
12052;SDS011;6087;48.982;12.064;2022-10-22T00:08:02;17.75;;;13.05;;
12052;SDS011;6087;48.982;12.064;2022-10-22T00:10:30;16.60;;;12.95;;
12052;SDS011;6087;48.982;12.064;2022-10-22T00:12:57;15.43;;;12.57;;
12052;SDS011;6087;48.982;12.064;2022-10-22T00:15:24;19.40;;;13.65;;
12052;SDS011;6087;48.982;12.064;2022-10-22T00:17:51;16.27;;;12.73;;
12052;SDS011;6087;48.982;12.064;2022-10-22T00:20:18;15.70;;;11.35;;
12052;SDS011;6087;48.982;12.064;2022-10-22T00:22:45;17.83;;;12.73;;
12052;SDS011;6087;48.982;12.064;2022-10-22T00:25:12;18.80;;;12.80;;
12052;SDS011;6087;48.982;12.064;2022-10-22T00:27:40;16.98;;;14.23;;
12052;SDS011;6087;48.982;12.064;2022-10-22T00:30:08;16.00;;;12.23;;
12052;SDS011;6087;48.982;12.064;2022-10-22T00:32:35;18.95;;;13.55;;
12052;SDS011;6087;48.982;12.064;2022-10-22T00:35:02;20.10;;;13.07;;
12052;SDS011;6087;48.982;12.064;2022-10-22T00:37:30;18.80;;;12.25;;
12052;SDS011;6087;48.982;12.064;2022-10-22T00:39:57;14.52;;;12.10;;
12052;SDS011;6087;48.982;12.064;2022-10-22T00:42:25;20.10;;;13.43;;
12052;SDS011;6087;48.982;12.064;2022-10-22T00:44:59;18.83;;;14.13;;
12052;SDS011;6087;48.982;12.064;2022-10-22T00:47:31;15.43;;;13.40;;
12052;SDS011;6087;48.982;12.064;2022-10-22T00:50:00;17.75;;;13.55;;
12052;SDS011;6087;48.982;12.064;2022-10-22T00:52:29;14.07;;;12.38;;
12052;SDS011;6087;48.982;12.064;2022-10-22T00:54:56;19.17;;;12.93;;
12052;SDS011;6087;48.982;12.064;2022-10-22T00:57:23;16.38;;;13.50;;
12052;SDS011;6087;48.982;12.064;2022-10-22T00:59:50;19.17;;;13.00;;
12052;SDS011;6087;48.982;12.064;2022-10-22T01:02:18;15.57;;;12.68;;
12052;SDS011;6087;48.982;12.064;2022-10-22T01:04:45;16.40;;;13.15;;
12052;SDS011;6087;48.982;12.064;2022-10-22T01:07:14;17.67;;;13.15;;
12052;SDS011;6087;48.982;12.064;2022-10-22T01:09:45;17.30;;;12.80;;
12052;SDS011;6087;48.982;12.064;2022-10-22T01:12:19;17.50;;;13.70;;
12052;SDS011;6087;48.982;12.064;2022-10-22T01:14:57;18.05;;;12.13;;
12052;SDS011;6087;48.982;12.064;2022-10-22T01:17:35;16.05;;;13.10;;
12052;SDS011;6087;48.982;12.064;2022-10-22T01:20:14;17.42;;;12.23;;
12052;SDS011;6087;48.982;12.064;2022-10-22T01:22:54;20.48;;;13.13;;
12052;SDS011;6087;48.982;12.064;2022-10-22T01:25:30;19.20;;;13.98;;
12052;SDS011;6087;48.982;12.064;2022-10-22T01:28:05;18.20;;;13.57;;
12052;SDS011;6087;48.982;12.064;2022-10-22T01:30:43;18.17;;;13.38;;
12052;SDS011;6087;48.982;12.064;2022-10-22T01:33:12;15.63;;;12.95;;
12052;SDS011;6087;48.982;12.064;2022-10-22T01:35:43;18.55;;;12.60;;
12052;SDS011;6087;48.982;12.064;2022-10-22T01:38:11;15.73;;;13.20;;
12052;SDS011;6087;48.982;12.064;2022-10-22T01:40:42;17.45;;;12.98;;
12052;SDS011;6087;48.982;12.064;2022-10-22T01:43:10;16.05;;;13.43;;
12052;SDS011;6087;48.982;12.064;2022-10-22T01:45:39;16.77;;;13.32;;
12052;SDS011;6087;48.982;12.064;2022-10-22T01:48:18;16.25;;;12.60;;
12052;SDS011;6087;48.982;12.064;2022-10-22T01:51:02;16.13;;;12.95;;
12052;SDS011;6087;48.982;12.064;2022-10-22T01:53:43;15.73;;;12.95;;
12052;SDS011;6087;48.982;12.064;2022-10-22T01:56:23;17.27;;;13.38;;
12052;SDS011;6087;48.982;12.064;2022-10-22T01:59:02;19.58;;;14.85;;
12052;SDS011;6087;48.982;12.064;2022-10-22T02:01:34;17.63;;;13.27;;
12052;SDS011;6087;48.982;12.064;2022-10-22T02:04:10;18.13;;;13.50;;
12052;SDS011;6087;48.982;12.064;2022-10-22T02:06:42;18.05;;;12.85;;
12052;SDS011;6087;48.982;12.064;2022-10-22T02:09:12;15.38;;;12.60;;
12052;SDS011;6087;48.982;12.064;2022-10-22T02:11:41;15.23;;;12.52;;
12052;SDS011;6087;48.982;12.064;2022-10-22T02:14:09;17.55;;;12.52;;
12052;SDS011;6087;48.982;12.064;2022-10-22T02:16:40;18.55;;;13.23;;
12052;SDS011;6087;48.982;12.064;2022-10-22T02:19:10;17.70;;;13.35;;
12052;SDS011;6087;48.982;12.064;2022-10-22T02:21:43;15.20;;;12.68;;
12052;SDS011;6087;48.982;12.064;2022-10-22T02:24:11;18.02;;;13.18;;
12052;SDS011;6087;48.982;12.064;2022-10-22T02:26:39;19.38;;;13.35;;
12052;SDS011;6087;48.982;12.064;2022-10-22T02:29:10;20.92;;;14.00;;
12052;SDS011;6087;48.982;12.064;2022-10-22T02:31:42;14.52;;;12.23;;
12052;SDS011;6087;48.982;12.064;2022-10-22T02:34:12;16.08;;;12.52;;
12052;SDS011;6087;48.982;12.064;2022-10-22T02:36:43;15.63;;;12.93;;
12052;SDS011;6087;48.982;12.064;2022-10-22T02:39:12;14.68;;;12.15;;
12052;SDS011;6087;48.982;12.064;2022-10-22T02:41:40;14.40;;;12.85;;
12052;SDS011;6087;48.982;12.064;2022-10-22T02:44:08;18.23;;;13.63;;
12052;SDS011;6087;48.982;12.064;2022-10-22T02:46:36;17.48;;;13.18;;
12052;SDS011;6087;48.982;12.064;2022-10-22T02:49:05;14.60;;;11.77;;
12052;SDS011;6087;48.982;12.064;2022-10-22T02:51:32;14.70;;;11.55;;
12052;SDS011;6087;48.982;12.064;2022-10-22T02:53:59;15.02;;;11.80;;
12052;SDS011;6087;48.982;12.064;2022-10-22T02:56:26;16.45;;;11.93;;
12052;SDS011;6087;48.982;12.064;2022-10-22T02:58:53;15.63;;;12.57;;
12052;SDS011;6087;48.982;12.064;2022-10-22T03:01:20;17.75;;;13.00;;
12052;SDS011;6087;48.982;12.064;2022-10-22T03:03:47;15.48;;;12.75;;
12052;SDS011;6087;48.982;12.064;2022-10-22T03:06:16;18.60;;;13.27;;
12052;SDS011;6087;48.982;12.064;2022-10-22T03:08:43;15.43;;;12.27;;
12052;SDS011;6087;48.982;12.064;2022-10-22T03:11:10;14.40;;;12.18;;
12052;SDS011;6087;48.982;12.064;2022-10-22T03:13:37;16.00;;;13.48;;
12052;SDS011;6087;48.982;12.064;2022-10-22T03:16:04;15.52;;;12.95;;
12052;SDS011;6087;48.982;12.064;2022-10-22T03:18:32;15.55;;;13.00;;
12052;SDS011;6087;48.982;12.064;2022-10-22T03:21:00;15.07;;;12.25;;
12052;SDS011;6087;48.982;12.064;2022-10-22T03:23:32;17.90;;;12.38;;
12052;SDS011;6087;48.982;12.064;2022-10-22T03:26:00;14.45;;;12.38;;
12052;SDS011;6087;48.982;12.064;2022-10-22T03:28:27;16.20;;;12.98;;
12052;SDS011;6087;48.982;12.064;2022-10-22T03:30:55;16.02;;;12.05;;
12052;SDS011;6087;48.982;12.064;2022-10-22T03:33:22;15.43;;;11.93;;
12052;SDS011;6087;48.982;12.064;2022-10-22T03:35:48;15.45;;;11.60;;
12052;SDS011;6087;48.982;12.064;2022-10-22T03:38:15;13.30;;;11.70;;
12052;SDS011;6087;48.982;12.064;2022-10-22T03:40:44;13.50;;;10.95;;
12052;SDS011;6087;48.982;12.064;2022-10-22T03:43:12;15.40;;;12.00;;
12052;SDS011;6087;48.982;12.064;2022-10-22T03:45:39;17.42;;;12.18;;
12052;SDS011;6087;48.982;12.064;2022-10-22T03:48:06;16.40;;;12.45;;
12052;SDS011;6087;48.982;12.064;2022-10-22T03:50:34;15.82;;;11.98;;
12052;SDS011;6087;48.982;12.064;2022-10-22T03:53:01;16.13;;;11.77;;
12052;SDS011;6087;48.982;12.064;2022-10-22T03:55:28;13.80;;;11.65;;
12052;SDS011;6087;48.982;12.064;2022-10-22T03:57:57;13.23;;;11.40;;
12052;SDS011;6087;48.982;12.064;2022-10-22T04:00:24;15.68;;;12.10;;
12052;SDS011;6087;48.982;12.064;2022-10-22T04:02:51;15.80;;;11.90;;
12052;SDS011;6087;48.982;12.064;2022-10-22T04:05:18;14.07;;;12.13;;
12052;SDS011;6087;48.982;12.064;2022-10-22T04:07:45;14.02;;;11.27;;
12052;SDS011;6087;48.982;12.064;2022-10-22T04:10:12;12.10;;;10.80;;
12052;SDS011;6087;48.982;12.064;2022-10-22T04:12:39;15.52;;;10.93;;
12052;SDS011;6087;48.982;12.064;2022-10-22T04:15:08;14.35;;;11.32;;
12052;SDS011;6087;48.982;12.064;2022-10-22T04:17:35;15.48;;;12.45;;
12052;SDS011;6087;48.982;12.064;2022-10-22T04:20:02;14.05;;;10.48;;
12052;SDS011;6087;48.982;12.064;2022-10-22T04:22:31;14.07;;;11.65;;
12052;SDS011;6087;48.982;12.064;2022-10-22T04:24:59;13.23;;;11.15;;
12052;SDS011;6087;48.982;12.064;2022-10-22T04:27:28;12.30;;;10.90;;
12052;SDS011;6087;48.982;12.064;2022-10-22T04:29:55;17.38;;;11.88;;
12052;SDS011;6087;48.982;12.064;2022-10-22T04:32:24;15.82;;;11.45;;
12052;SDS011;6087;48.982;12.064;2022-10-22T04:34:50;15.48;;;11.65;;
12052;SDS011;6087;48.982;12.064;2022-10-22T04:37:17;16.52;;;11.45;;
12052;SDS011;6087;48.982;12.064;2022-10-22T04:39:44;16.33;;;11.35;;
12052;SDS011;6087;48.982;12.064;2022-10-22T04:42:11;17.45;;;11.80;;
12052;SDS011;6087;48.982;12.064;2022-10-22T04:44:38;16.70;;;12.45;;
12052;SDS011;6087;48.982;12.064;2022-10-22T04:47:05;17.48;;;12.07;;
12052;SDS011;6087;48.982;12.064;2022-10-22T04:49:34;15.98;;;12.20;;
12052;SDS011;6087;48.982;12.064;2022-10-22T04:52:01;17.48;;;13.43;;
12052;SDS011;6087;48.982;12.064;2022-10-22T04:54:28;17.38;;;13.55;;
12052;SDS011;6087;48.982;12.064;2022-10-22T04:56:55;23.45;;;12.82;;
12052;SDS011;6087;48.982;12.064;2022-10-22T04:59:22;19.60;;;13.63;;
12052;SDS011;6087;48.982;12.064;2022-10-22T05:01:48;26.02;;;13.27;;
12052;SDS011;6087;48.982;12.064;2022-10-22T05:04:16;24.20;;;13.13;;
12052;SDS011;6087;48.982;12.064;2022-10-22T05:06:45;19.52;;;13.07;;
12052;SDS011;6087;48.982;12.064;2022-10-22T05:09:13;26.95;;;12.65;;
12052;SDS011;6087;48.982;12.064;2022-10-22T05:11:42;19.17;;;12.90;;
12052;SDS011;6087;48.982;12.064;2022-10-22T05:14:12;25.95;;;14.02;;
12052;SDS011;6087;48.982;12.064;2022-10-22T05:16:40;17.13;;;12.52;;
12052;SDS011;6087;48.982;12.064;2022-10-22T05:19:07;16.80;;;11.32;;
12052;SDS011;6087;48.982;12.064;2022-10-22T05:21:39;19.48;;;11.80;;
12052;SDS011;6087;48.982;12.064;2022-10-22T05:24:08;13.32;;;10.15;;
12052;SDS011;6087;48.982;12.064;2022-10-22T05:26:35;14.65;;;11.23;;
12052;SDS011;6087;48.982;12.064;2022-10-22T05:29:02;15.05;;;10.68;;
12052;SDS011;6087;48.982;12.064;2022-10-22T05:31:29;13.45;;;11.27;;
12052;SDS011;6087;48.982;12.064;2022-10-22T05:33:56;13.18;;;9.68;;
12052;SDS011;6087;48.982;12.064;2022-10-22T05:36:22;11.77;;;10.00;;
12052;SDS011;6087;48.982;12.064;2022-10-22T05:38:50;11.95;;;9.43;;
12052;SDS011;6087;48.982;12.064;2022-10-22T05:41:19;11.48;;;10.30;;
12052;SDS011;6087;48.982;12.064;2022-10-22T05:43:46;12.88;;;10.38;;
12052;SDS011;6087;48.982;12.064;2022-10-22T05:46:14;13.93;;;9.88;;
12052;SDS011;6087;48.982;12.064;2022-10-22T05:48:47;11.10;;;9.65;;
12052;SDS011;6087;48.982;12.064;2022-10-22T05:51:14;12.45;;;9.30;;
12052;SDS011;6087;48.982;12.064;2022-10-22T05:53:42;15.77;;;10.25;;
12052;SDS011;6087;48.982;12.064;2022-10-22T05:56:10;12.25;;;10.10;;
12052;SDS011;6087;48.982;12.064;2022-10-22T05:58:40;14.80;;;10.70;;
12052;SDS011;6087;48.982;12.064;2022-10-22T06:01:10;16.50;;;11.00;;
12052;SDS011;6087;48.982;12.064;2022-10-22T06:03:39;13.30;;;10.93;;
12052;SDS011;6087;48.982;12.064;2022-10-22T06:06:09;14.25;;;10.70;;
12052;SDS011;6087;48.982;12.064;2022-10-22T06:08:42;14.60;;;11.25;;
12052;SDS011;6087;48.982;12.064;2022-10-22T06:11:09;12.63;;;9.65;;
12052;SDS011;6087;48.982;12.064;2022-10-22T06:13:37;14.98;;;10.50;;
12052;SDS011;6087;48.982;12.064;2022-10-22T06:16:05;13.50;;;10.23;;
12052;SDS011;6087;48.982;12.064;2022-10-22T06:18:32;15.40;;;10.52;;
12052;SDS011;6087;48.982;12.064;2022-10-22T06:21:02;12.18;;;9.93;;
12052;SDS011;6087;48.982;12.064;2022-10-22T06:23:31;13.02;;;10.90;;
12052;SDS011;6087;48.982;12.064;2022-10-22T06:25:58;11.80;;;9.73;;
12052;SDS011;6087;48.982;12.064;2022-10-22T06:28:25;14.23;;;10.80;;
12052;SDS011;6087;48.982;12.064;2022-10-22T06:30:52;13.00;;;10.40;;
12052;SDS011;6087;48.982;12.064;2022-10-22T06:33:21;11.38;;;9.45;;
12052;SDS011;6087;48.982;12.064;2022-10-22T06:35:48;12.77;;;10.60;;
12052;SDS011;6087;48.982;12.064;2022-10-22T06:38:15;13.75;;;10.18;;
12052;SDS011;6087;48.982;12.064;2022-10-22T06:40:42;11.98;;;9.13;;
12052;SDS011;6087;48.982;12.064;2022-10-22T06:43:09;11.65;;;8.82;;
12052;SDS011;6087;48.982;12.064;2022-10-22T06:45:36;10.20;;;9.10;;
12052;SDS011;6087;48.982;12.064;2022-10-22T06:48:03;9.93;;;8.93;;
12052;SDS011;6087;48.982;12.064;2022-10-22T06:50:34;10.13;;;8.57;;
12052;SDS011;6087;48.982;12.064;2022-10-22T06:53:01;9.45;;;8.35;;
12052;SDS011;6087;48.982;12.064;2022-10-22T06:55:28;9.85;;;8.18;;
12052;SDS011;6087;48.982;12.064;2022-10-22T06:57:55;9.35;;;7.93;;
12052;SDS011;6087;48.982;12.064;2022-10-22T07:00:22;8.27;;;7.45;;
12052;SDS011;6087;48.982;12.064;2022-10-22T07:02:49;7.57;;;6.78;;
12052;SDS011;6087;48.982;12.064;2022-10-22T07:05:18;6.78;;;6.03;;
12052;SDS011;6087;48.982;12.064;2022-10-22T07:07:46;6.55;;;5.32;;
12052;SDS011;6087;48.982;12.064;2022-10-22T07:10:14;6.55;;;4.57;;
12052;SDS011;6087;48.982;12.064;2022-10-22T07:12:41;5.18;;;4.63;;
12052;SDS011;6087;48.982;12.064;2022-10-22T07:15:08;4.40;;;3.50;;
12052;SDS011;6087;48.982;12.064;2022-10-22T07:17:35;3.80;;;3.40;;
12052;SDS011;6087;48.982;12.064;2022-10-22T07:20:02;4.30;;;3.35;;
12052;SDS011;6087;48.982;12.064;2022-10-22T07:22:30;4.57;;;3.28;;
12052;SDS011;6087;48.982;12.064;2022-10-22T07:24:59;4.72;;;3.13;;
12052;SDS011;6087;48.982;12.064;2022-10-22T07:27:26;3.47;;;3.17;;
12052;SDS011;6087;48.982;12.064;2022-10-22T07:29:53;4.53;;;4.13;;
12052;SDS011;6087;48.982;12.064;2022-10-22T07:32:20;4.20;;;3.80;;
12052;SDS011;6087;48.982;12.064;2022-10-22T07:34:47;4.85;;;4.00;;
12052;SDS011;6087;48.982;12.064;2022-10-22T07:37:14;4.00;;;3.60;;
12052;SDS011;6087;48.982;12.064;2022-10-22T07:39:41;8.45;;;4.22;;
12052;SDS011;6087;48.982;12.064;2022-10-22T07:42:12;4.32;;;3.92;;
12052;SDS011;6087;48.982;12.064;2022-10-22T07:44:39;6.28;;;3.67;;
12052;SDS011;6087;48.982;12.064;2022-10-22T07:47:06;4.57;;;4.10;;
12052;SDS011;6087;48.982;12.064;2022-10-22T07:49:34;4.65;;;3.78;;
12052;SDS011;6087;48.982;12.064;2022-10-22T07:52:01;4.30;;;3.83;;
12052;SDS011;6087;48.982;12.064;2022-10-22T07:54:28;4.95;;;4.45;;
12052;SDS011;6087;48.982;12.064;2022-10-22T07:56:55;5.72;;;4.03;;
12052;SDS011;6087;48.982;12.064;2022-10-22T07:59:23;6.93;;;4.43;;
12052;SDS011;6087;48.982;12.064;2022-10-22T08:01:50;6.18;;;4.28;;
12052;SDS011;6087;48.982;12.064;2022-10-22T08:04:17;7.25;;;3.67;;
12052;SDS011;6087;48.982;12.064;2022-10-22T08:06:44;3.95;;;3.65;;
12052;SDS011;6087;48.982;12.064;2022-10-22T08:09:11;5.03;;;3.78;;
12052;SDS011;6087;48.982;12.064;2022-10-22T08:11:38;6.30;;;4.40;;
12052;SDS011;6087;48.982;12.064;2022-10-22T08:14:05;4.30;;;3.90;;
12052;SDS011;6087;48.982;12.064;2022-10-22T08:16:33;4.60;;;4.20;;
12052;SDS011;6087;48.982;12.064;2022-10-22T08:19:00;5.05;;;3.97;;
12052;SDS011;6087;48.982;12.064;2022-10-22T08:21:27;4.57;;;3.65;;
12052;SDS011;6087;48.982;12.064;2022-10-22T08:23:54;5.07;;;3.95;;
12052;SDS011;6087;48.982;12.064;2022-10-22T08:26:21;4.60;;;4.20;;
12052;SDS011;6087;48.982;12.064;2022-10-22T08:28:48;4.43;;;4.03;;
12052;SDS011;6087;48.982;12.064;2022-10-22T08:31:15;3.90;;;3.30;;
12052;SDS011;6087;48.982;12.064;2022-10-22T08:33:43;5.35;;;4.05;;
12052;SDS011;6087;48.982;12.064;2022-10-22T08:36:10;4.38;;;3.53;;
12052;SDS011;6087;48.982;12.064;2022-10-22T08:38:37;4.40;;;3.17;;
12052;SDS011;6087;48.982;12.064;2022-10-22T08:41:09;3.92;;;3.05;;
12052;SDS011;6087;48.982;12.064;2022-10-22T08:43:47;4.10;;;3.25;;
12052;SDS011;6087;48.982;12.064;2022-10-22T08:49:31;3.13;;;2.85;;
12052;SDS011;6087;48.982;12.064;2022-10-22T08:52:00;3.72;;;3.28;;
12052;SDS011;6087;48.982;12.064;2022-10-22T08:54:31;4.93;;;2.85;;
12052;SDS011;6087;48.982;12.064;2022-10-22T08:57:05;6.30;;;2.70;;
12052;SDS011;6087;48.982;12.064;2022-10-22T08:59:46;3.55;;;2.33;;
12052;SDS011;6087;48.982;12.064;2022-10-22T09:02:21;2.78;;;2.45;;
12052;SDS011;6087;48.982;12.064;2022-10-22T09:05:01;2.65;;;2.45;;
12052;SDS011;6087;48.982;12.064;2022-10-22T09:07:39;1.90;;;1.80;;
12052;SDS011;6087;48.982;12.064;2022-10-22T09:10:07;2.47;;;2.28;;
12052;SDS011;6087;48.982;12.064;2022-10-22T09:12:36;2.85;;;2.53;;
12052;SDS011;6087;48.982;12.064;2022-10-22T09:15:04;2.72;;;2.42;;
12052;SDS011;6087;48.982;12.064;2022-10-22T09:17:32;2.17;;;2.00;;
12052;SDS011;6087;48.982;12.064;2022-10-22T09:20:07;2.42;;;2.00;;
12052;SDS011;6087;48.982;12.064;2022-10-22T09:22:42;3.42;;;2.60;;
12052;SDS011;6087;48.982;12.064;2022-10-22T09:25:14;3.63;;;3.13;;
12052;SDS011;6087;48.982;12.064;2022-10-22T09:27:45;5.15;;;2.55;;
12052;SDS011;6087;48.982;12.064;2022-10-22T09:30:14;3.17;;;2.58;;
12052;SDS011;6087;48.982;12.064;2022-10-22T09:32:42;3.58;;;2.58;;
12052;SDS011;6087;48.982;12.064;2022-10-22T09:35:12;3.10;;;2.70;;
12052;SDS011;6087;48.982;12.064;2022-10-22T09:37:46;2.88;;;2.60;;
12052;SDS011;6087;48.982;12.064;2022-10-22T09:40:14;2.30;;;2.20;;
12052;SDS011;6087;48.982;12.064;2022-10-22T09:42:43;4.43;;;2.38;;
12052;SDS011;6087;48.982;12.064;2022-10-22T09:45:15;2.53;;;2.28;;
12052;SDS011;6087;48.982;12.064;2022-10-22T09:47:45;5.80;;;3.10;;
12052;SDS011;6087;48.982;12.064;2022-10-22T09:50:21;2.80;;;2.60;;
12052;SDS011;6087;48.982;12.064;2022-10-22T09:52:59;2.58;;;2.47;;
12052;SDS011;6087;48.982;12.064;2022-10-22T09:55:29;3.05;;;2.70;;
12052;SDS011;6087;48.982;12.064;2022-10-22T09:57:57;2.60;;;2.40;;
12052;SDS011;6087;48.982;12.064;2022-10-22T10:00:25;3.00;;;2.70;;
12052;SDS011;6087;48.982;12.064;2022-10-22T10:02:55;3.50;;;2.50;;
12052;SDS011;6087;48.982;12.064;2022-10-22T10:05:28;3.10;;;2.83;;
12052;SDS011;6087;48.982;12.064;2022-10-22T10:07:57;3.40;;;2.80;;
12052;SDS011;6087;48.982;12.064;2022-10-22T10:10:34;3.10;;;2.80;;
12052;SDS011;6087;48.982;12.064;2022-10-22T10:16:00;6.45;;;3.22;;
12052;SDS011;6087;48.982;12.064;2022-10-22T10:18:38;5.60;;;3.00;;
12052;SDS011;6087;48.982;12.064;2022-10-22T10:21:22;3.17;;;2.65;;
12052;SDS011;6087;48.982;12.064;2022-10-22T10:23:56;3.10;;;2.70;;
12052;SDS011;6087;48.982;12.064;2022-10-22T10:26:30;3.03;;;2.67;;
12052;SDS011;6087;48.982;12.064;2022-10-22T10:29:09;3.15;;;2.95;;
12052;SDS011;6087;48.982;12.064;2022-10-22T10:31:44;5.45;;;2.85;;
12052;SDS011;6087;48.982;12.064;2022-10-22T10:34:28;2.60;;;2.40;;
12052;SDS011;6087;48.982;12.064;2022-10-22T10:37:11;3.22;;;2.70;;
12052;SDS011;6087;48.982;12.064;2022-10-22T10:39:50;2.78;;;2.05;;
12052;SDS011;6087;48.982;12.064;2022-10-22T10:42:29;2.80;;;2.00;;
12052;SDS011;6087;48.982;12.064;2022-10-22T10:45:06;2.40;;;2.20;;
12052;SDS011;6087;48.982;12.064;2022-10-22T10:50:39;3.88;;;2.08;;
12052;SDS011;6087;48.982;12.064;2022-10-22T10:53:19;2.50;;;1.77;;
12052;SDS011;6087;48.982;12.064;2022-10-22T10:55:54;5.35;;;1.75;;
12052;SDS011;6087;48.982;12.064;2022-10-22T10:58:29;3.75;;;1.70;;
12052;SDS011;6087;48.982;12.064;2022-10-22T11:01:07;2.38;;;1.33;;
12052;SDS011;6087;48.982;12.064;2022-10-22T11:03:53;1.83;;;1.15;;
12052;SDS011;6087;48.982;12.064;2022-10-22T11:06:36;1.48;;;1.20;;
12052;SDS011;6087;48.982;12.064;2022-10-22T11:09:07;2.13;;;1.98;;
12052;SDS011;6087;48.982;12.064;2022-10-22T11:11:46;2.38;;;2.17;;
12052;SDS011;6087;48.982;12.064;2022-10-22T11:14:17;2.65;;;2.20;;
12052;SDS011;6087;48.982;12.064;2022-10-22T11:16:48;3.35;;;2.47;;
12052;SDS011;6087;48.982;12.064;2022-10-22T11:19:22;2.90;;;2.70;;
12052;SDS011;6087;48.982;12.064;2022-10-22T11:21:53;2.70;;;2.42;;
12052;SDS011;6087;48.982;12.064;2022-10-22T11:24:26;2.03;;;1.90;;
12052;SDS011;6087;48.982;12.064;2022-10-22T11:27:00;2.40;;;1.70;;
12052;SDS011;6087;48.982;12.064;2022-10-22T11:29:32;9.38;;;1.92;;
12052;SDS011;6087;48.982;12.064;2022-10-22T11:32:04;1.58;;;1.48;;
12052;SDS011;6087;48.982;12.064;2022-10-22T11:34:37;1.70;;;1.60;;
12052;SDS011;6087;48.982;12.064;2022-10-22T11:37:10;2.38;;;1.38;;
12052;SDS011;6087;48.982;12.064;2022-10-22T11:39:42;2.80;;;1.50;;
12052;SDS011;6087;48.982;12.064;2022-10-22T11:42:11;1.48;;;1.10;;
12052;SDS011;6087;48.982;12.064;2022-10-22T11:44:46;1.25;;;0.90;;
12052;SDS011;6087;48.982;12.064;2022-10-22T11:47:16;2.33;;;1.10;;
12052;SDS011;6087;48.982;12.064;2022-10-22T11:49:45;2.85;;;1.20;;
12052;SDS011;6087;48.982;12.064;2022-10-22T11:52:22;1.42;;;1.00;;
12052;SDS011;6087;48.982;12.064;2022-10-22T11:54:57;0.93;;;0.90;;
12052;SDS011;6087;48.982;12.064;2022-10-22T11:57:28;3.17;;;0.98;;
12052;SDS011;6087;48.982;12.064;2022-10-22T12:00:06;1.00;;;0.70;;
12052;SDS011;6087;48.982;12.064;2022-10-22T12:02:43;2.20;;;0.95;;
12052;SDS011;6087;48.982;12.064;2022-10-22T12:08:24;1.70;;;0.80;;
12052;SDS011;6087;48.982;12.064;2022-10-22T12:10:58;1.20;;;0.55;;
12052;SDS011;6087;48.982;12.064;2022-10-22T12:13:31;1.20;;;0.60;;
12052;SDS011;6087;48.982;12.064;2022-10-22T12:16:01;0.60;;;0.60;;
12052;SDS011;6087;48.982;12.064;2022-10-22T12:18:32;1.58;;;0.60;;
12052;SDS011;6087;48.982;12.064;2022-10-22T12:21:04;1.15;;;0.73;;
12052;SDS011;6087;48.982;12.064;2022-10-22T12:23:33;0.90;;;0.55;;
12052;SDS011;6087;48.982;12.064;2022-10-22T12:26:03;0.75;;;0.57;;
12052;SDS011;6087;48.982;12.064;2022-10-22T12:28:36;0.75;;;0.60;;
12052;SDS011;6087;48.982;12.064;2022-10-22T12:31:05;2.15;;;0.70;;
12052;SDS011;6087;48.982;12.064;2022-10-22T12:33:40;1.55;;;0.85;;
12052;SDS011;6087;48.982;12.064;2022-10-22T12:36:12;0.80;;;0.40;;
12052;SDS011;6087;48.982;12.064;2022-10-22T12:38:41;0.85;;;0.80;;
12052;SDS011;6087;48.982;12.064;2022-10-22T12:41:13;1.05;;;0.50;;
12052;SDS011;6087;48.982;12.064;2022-10-22T12:43:40;3.50;;;0.70;;
12052;SDS011;6087;48.982;12.064;2022-10-22T12:46:09;1.23;;;0.90;;
12052;SDS011;6087;48.982;12.064;2022-10-22T12:48:39;1.13;;;0.85;;
12052;SDS011;6087;48.982;12.064;2022-10-22T12:51:08;1.88;;;0.82;;
12052;SDS011;6087;48.982;12.064;2022-10-22T12:53:42;2.97;;;0.80;;
12052;SDS011;6087;48.982;12.064;2022-10-22T12:56:14;0.77;;;0.75;;
12052;SDS011;6087;48.982;12.064;2022-10-22T12:58:47;1.52;;;0.82;;
12052;SDS011;6087;48.982;12.064;2022-10-22T13:01:18;2.58;;;0.90;;
12052;SDS011;6087;48.982;12.064;2022-10-22T13:03:45;0.80;;;0.80;;
12052;SDS011;6087;48.982;12.064;2022-10-22T13:06:21;3.28;;;0.75;;
12052;SDS011;6087;48.982;12.064;2022-10-22T13:09:00;0.75;;;0.63;;
12052;SDS011;6087;48.982;12.064;2022-10-22T13:11:36;1.17;;;0.68;;
12052;SDS011;6087;48.982;12.064;2022-10-22T13:14:05;0.77;;;0.60;;
12052;SDS011;6087;48.982;12.064;2022-10-22T13:16:41;0.70;;;0.65;;
12052;SDS011;6087;48.982;12.064;2022-10-22T13:22:04;0.40;;;0.40;;
12052;SDS011;6087;48.982;12.064;2022-10-22T13:24:31;0.98;;;0.80;;
12052;SDS011;6087;48.982;12.064;2022-10-22T13:27:02;2.58;;;0.70;;
12052;SDS011;6087;48.982;12.064;2022-10-22T13:29:29;4.00;;;0.65;;
12052;SDS011;6087;48.982;12.064;2022-10-22T13:31:56;0.52;;;0.52;;
12052;SDS011;6087;48.982;12.064;2022-10-22T13:34:24;0.98;;;0.60;;
12052;SDS011;6087;48.982;12.064;2022-10-22T13:36:52;1.98;;;0.60;;
12052;SDS011;6087;48.982;12.064;2022-10-22T13:39:19;1.10;;;0.50;;
12052;SDS011;6087;48.982;12.064;2022-10-22T13:41:48;1.60;;;0.70;;
12052;SDS011;6087;48.982;12.064;2022-10-22T13:44:17;1.30;;;0.63;;
12052;SDS011;6087;48.982;12.064;2022-10-22T13:46:45;3.03;;;0.50;;
12052;SDS011;6087;48.982;12.064;2022-10-22T13:49:14;3.17;;;0.70;;
12052;SDS011;6087;48.982;12.064;2022-10-22T13:51:42;0.52;;;0.50;;
12052;SDS011;6087;48.982;12.064;2022-10-22T13:54:12;3.15;;;0.65;;
12052;SDS011;6087;48.982;12.064;2022-10-22T13:56:41;1.33;;;0.90;;
12052;SDS011;6087;48.982;12.064;2022-10-22T13:59:09;2.75;;;0.75;;
12052;SDS011;6087;48.982;12.064;2022-10-22T14:01:37;0.63;;;0.63;;
12052;SDS011;6087;48.982;12.064;2022-10-22T14:04:05;2.17;;;0.68;;
12052;SDS011;6087;48.982;12.064;2022-10-22T14:06:35;3.58;;;0.82;;
12052;SDS011;6087;48.982;12.064;2022-10-22T14:09:03;0.70;;;0.70;;
12052;SDS011;6087;48.982;12.064;2022-10-22T14:11:32;2.17;;;1.00;;
12052;SDS011;6087;48.982;12.064;2022-10-22T14:13:59;3.38;;;0.90;;
12052;SDS011;6087;48.982;12.064;2022-10-22T14:16:29;2.17;;;0.90;;
12052;SDS011;6087;48.982;12.064;2022-10-22T14:18:59;3.00;;;0.80;;
12052;SDS011;6087;48.982;12.064;2022-10-22T14:21:27;0.88;;;0.70;;
12052;SDS011;6087;48.982;12.064;2022-10-22T14:23:59;1.85;;;0.80;;
12052;SDS011;6087;48.982;12.064;2022-10-22T14:26:27;0.98;;;0.55;;
12052;SDS011;6087;48.982;12.064;2022-10-22T14:28:57;0.80;;;0.80;;
12052;SDS011;6087;48.982;12.064;2022-10-22T14:31:24;1.85;;;0.77;;
12052;SDS011;6087;48.982;12.064;2022-10-22T14:33:51;2.15;;;0.95;;
12052;SDS011;6087;48.982;12.064;2022-10-22T14:36:20;0.77;;;0.60;;
12052;SDS011;6087;48.982;12.064;2022-10-22T14:38:47;1.02;;;0.98;;
12052;SDS011;6087;48.982;12.064;2022-10-22T14:41:16;0.75;;;0.75;;
12052;SDS011;6087;48.982;12.064;2022-10-22T14:43:45;1.88;;;0.60;;
12052;SDS011;6087;48.982;12.064;2022-10-22T14:46:12;0.70;;;0.70;;
12052;SDS011;6087;48.982;12.064;2022-10-22T14:48:41;1.60;;;1.15;;
12052;SDS011;6087;48.982;12.064;2022-10-22T14:51:10;2.58;;;0.73;;
12052;SDS011;6087;48.982;12.064;2022-10-22T14:53:40;1.65;;;0.90;;
12052;SDS011;6087;48.982;12.064;2022-10-22T14:56:08;1.60;;;0.70;;
12052;SDS011;6087;48.982;12.064;2022-10-22T14:58:36;1.67;;;0.70;;
12052;SDS011;6087;48.982;12.064;2022-10-22T15:01:03;1.15;;;0.65;;
12052;SDS011;6087;48.982;12.064;2022-10-22T15:03:30;0.90;;;0.90;;
12052;SDS011;6087;48.982;12.064;2022-10-22T15:05:57;0.75;;;0.75;;